createdAt,value
2018-12-04T00:01:08.553Z,79.07
2018-12-04T00:03:39.658Z,80.18
2018-12-04T00:06:09.007Z,79.11
2018-12-04T00:08:40.069Z,79.21
2018-12-04T00:11:09.458Z,78.57
2018-12-04T00:13:38.542Z,79.29
2018-12-04T00:16:07.663Z,77.99
2018-12-04T00:18:37.123Z,77.60
2018-12-04T00:21:06.234Z,77.63
2018-12-04T00:23:37.893Z,78.75
2018-12-04T00:26:14.006Z,77.71
2018-12-04T00:28:43.354Z,77.55
2018-12-04T00:31:14.419Z,78.18
2018-12-04T00:33:44.401Z,77.31
2018-12-04T00:36:13.506Z,77.66
2018-12-04T00:38:42.581Z,77.36
2018-12-04T00:41:13.563Z,77.64
2018-12-04T00:43:42.626Z,78.07
2018-12-04T00:46:11.830Z,78.02
2018-12-04T00:48:41.413Z,77.89
2018-12-04T00:51:10.443Z,77.43
2018-12-04T00:53:39.512Z,78.16
2018-12-04T00:56:09.964Z,77.93
2018-12-04T00:58:39.075Z,77.80
2018-12-04T01:01:08.234Z,78.72
2018-12-04T01:03:37.653Z,79.04
2018-12-04T01:06:06.739Z,78.64
2018-12-04T01:08:35.929Z,78.96
2018-12-04T01:11:05.210Z,78.90
2018-12-04T01:13:34.330Z,79.17
2018-12-04T01:16:03.646Z,78.75
2018-12-04T01:18:32.751Z,78.55
2018-12-04T01:21:03.541Z,79.36
2018-12-04T01:23:35.399Z,78.29
2018-12-04T01:26:04.410Z,78.71
2018-12-04T01:28:33.509Z,78.08
2018-12-04T01:31:03.022Z,78.73
2018-12-04T01:33:33.868Z,78.29
2018-12-04T01:36:02.905Z,77.78
2018-12-04T01:38:31.893Z,78.59
2018-12-04T01:41:01.444Z,78.28
2018-12-04T01:43:30.870Z,77.73
2018-12-04T01:46:03.009Z,77.35
2018-12-04T01:48:32.417Z,78.34
2018-12-04T01:51:01.496Z,77.51
2018-12-04T01:53:30.593Z,77.28
2018-12-04T01:55:59.833Z,77.70
2018-12-04T01:58:28.907Z,77.96
2018-12-04T02:00:57.986Z,78.16
2018-12-04T02:03:27.349Z,78.10
2018-12-04T02:05:56.394Z,78.43
2018-12-04T02:08:25.487Z,78.06
2018-12-04T02:10:54.894Z,77.81
2018-12-04T02:13:23.954Z,77.75
2018-12-04T02:15:52.985Z,77.66
2018-12-04T02:18:28.114Z,77.75
2018-12-04T02:20:57.310Z,77.34
2018-12-04T02:23:26.478Z,77.79
2018-12-04T02:25:55.918Z,77.12
2018-12-04T02:28:29.145Z,77.78
2018-12-04T02:31:04.682Z,78.29
2018-12-04T02:33:33.733Z,77.89
2018-12-04T02:36:02.849Z,78.10
2018-12-04T02:38:31.930Z,77.46
2018-12-04T02:41:01.073Z,77.53
2018-12-04T02:43:30.070Z,78.54
2018-12-04T02:46:06.087Z,77.59
2018-12-04T02:48:35.300Z,77.21
2018-12-04T02:51:08.376Z,78.34
2018-12-04T02:53:37.474Z,78.05
2018-12-04T02:56:06.719Z,77.87
2018-12-04T02:58:36.165Z,78.18
2018-12-04T03:01:08.034Z,76.95
2018-12-04T03:03:37.962Z,77.16
2018-12-04T03:06:07.033Z,77.20
2018-12-04T03:08:36.117Z,77.29
2018-12-04T03:11:05.449Z,77.04
2018-12-04T03:13:34.523Z,77.37
2018-12-04T03:19:06.610Z,77.40
2018-12-04T03:21:36.193Z,77.54
2018-12-04T03:24:11.566Z,77.56
2018-12-04T03:26:40.747Z,77.41
2018-12-04T03:29:21.639Z,77.97
2018-12-04T03:31:50.715Z,77.27
2018-12-04T03:34:19.801Z,77.79
2018-12-04T03:36:49.323Z,77.50
2018-12-04T03:39:18.363Z,78.13
2018-12-04T03:41:48.468Z,78.21
2018-12-04T03:44:17.551Z,77.61
2018-12-04T03:46:46.603Z,78.31
2018-12-04T03:49:15.614Z,77.67
2018-12-04T03:51:48.555Z,78.36
2018-12-04T03:54:17.574Z,78.52
2018-12-04T03:56:46.569Z,78.39
2018-12-04T03:59:16.137Z,78.40
2018-12-04T04:01:45.210Z,77.79
2018-12-04T04:04:14.282Z,78.25
2018-12-04T04:06:43.790Z,78.05
2018-12-04T04:09:12.906Z,78.73
2018-12-04T04:11:41.958Z,78.23
2018-12-04T04:14:11.459Z,78.15
2018-12-04T04:16:43.651Z,77.78
2018-12-04T04:19:13.281Z,78.53
2018-12-04T04:21:49.982Z,78.18
2018-12-04T04:24:19.442Z,78.43
2018-12-04T04:26:48.513Z,77.78
2018-12-04T04:29:17.622Z,78.34
2018-12-04T04:31:46.936Z,78.15
2018-12-04T04:34:16.025Z,77.83
2018-12-04T04:36:45.043Z,78.19
2018-12-04T04:39:19.154Z,77.55
2018-12-04T04:41:56.918Z,78.37
2018-12-04T04:44:26.417Z,78.17
2018-12-04T04:46:55.523Z,78.74
2018-12-04T04:49:24.530Z,78.73
2018-12-04T04:51:53.929Z,78.53
2018-12-04T04:54:25.092Z,78.94
2018-12-04T04:56:54.569Z,77.94
2018-12-04T04:59:23.577Z,78.04
2018-12-04T05:01:52.651Z,78.04
2018-12-04T05:04:22.138Z,78.31
2018-12-04T05:06:51.250Z,77.97
2018-12-04T05:09:20.465Z,77.65
2018-12-04T05:11:50.268Z,77.37
2018-12-04T05:14:19.358Z,78.69
2018-12-04T05:16:48.466Z,77.85
2018-12-04T05:19:18.058Z,77.89
2018-12-04T05:21:47.338Z,77.17
2018-12-04T05:24:16.572Z,76.16
2018-12-04T05:26:46.038Z,76.42
2018-12-04T05:29:15.223Z,77.41
2018-12-04T05:31:44.355Z,76.13
2018-12-04T05:34:13.730Z,76.10
2018-12-04T05:36:45.327Z,75.97
2018-12-04T05:39:20.454Z,76.58
2018-12-04T05:41:49.534Z,76.48
2018-12-04T05:44:18.633Z,76.49
2018-12-04T05:46:51.884Z,76.95
2018-12-04T05:49:21.032Z,76.03
2018-12-04T05:51:50.118Z,76.09
2018-12-04T05:54:20.350Z,76.69
2018-12-04T05:56:49.430Z,76.24
2018-12-04T05:59:18.536Z,76.38
2018-12-04T06:01:48.631Z,76.65
2018-12-04T06:04:22.225Z,76.63
2018-12-04T06:06:51.381Z,76.46
2018-12-04T06:09:20.622Z,76.32
2018-12-04T06:15:00.899Z,76.20
2018-12-04T06:17:36.036Z,76.91
2018-12-04T06:20:05.905Z,76.82
2018-12-04T06:22:34.967Z,76.13
2018-12-04T06:25:04.194Z,77.01
2018-12-04T06:27:37.895Z,77.15
2018-12-04T06:30:07.842Z,76.47
2018-12-04T06:32:36.887Z,77.23
2018-12-04T06:35:06.517Z,76.43
2018-12-04T06:37:35.775Z,76.06
2018-12-04T06:40:05.045Z,76.44
2018-12-04T06:42:34.406Z,76.75
2018-12-04T06:45:03.909Z,77.02
2018-12-04T06:47:33.007Z,76.40
2018-12-04T06:50:02.121Z,76.57
2018-12-04T06:52:31.113Z,77.49
2018-12-04T06:55:00.118Z,76.80
2018-12-04T06:57:29.478Z,77.23
2018-12-04T06:59:58.658Z,77.69
2018-12-04T07:02:27.757Z,76.80
2018-12-04T07:04:57.174Z,77.25
2018-12-04T07:07:26.245Z,77.59
2018-12-04T07:09:55.356Z,77.07
2018-12-04T07:12:24.476Z,76.60
2018-12-04T07:14:53.534Z,76.84
2018-12-04T07:17:22.634Z,76.26
2018-12-04T07:19:51.949Z,76.41
2018-12-04T07:22:21.157Z,76.99
2018-12-04T07:24:50.150Z,76.70
2018-12-04T07:27:19.536Z,75.91
2018-12-04T07:29:48.625Z,76.06
2018-12-04T07:32:17.790Z,76.22
2018-12-04T07:34:47.229Z,75.83
2018-12-04T07:37:16.306Z,76.01
2018-12-04T07:39:45.417Z,76.11
2018-12-04T07:42:14.526Z,76.06
2018-12-04T07:44:43.639Z,76.20
2018-12-04T07:47:12.633Z,76.42
2018-12-04T07:49:41.727Z,75.75
2018-12-04T07:52:10.794Z,75.93
2018-12-04T07:54:39.882Z,76.13
2018-12-04T07:57:09.302Z,76.49
2018-12-04T07:59:38.297Z,75.62
2018-12-04T08:02:07.373Z,76.10
2018-12-04T08:04:36.762Z,76.11
2018-12-04T08:07:05.876Z,76.08
2018-12-04T08:09:34.870Z,76.03
2018-12-04T08:12:04.379Z,75.35
2018-12-04T08:14:33.438Z,76.29
2018-12-04T08:17:02.659Z,75.05
2018-12-04T08:19:31.781Z,75.68
2018-12-04T08:22:00.860Z,75.06
2018-12-04T08:24:29.926Z,74.51
2018-12-04T08:26:59.258Z,75.23
2018-12-04T08:29:28.276Z,74.97
2018-12-04T08:31:57.322Z,75.13
2018-12-04T08:34:26.350Z,74.83
2018-12-04T08:36:55.354Z,74.41
2018-12-04T08:39:24.418Z,75.05
2018-12-04T08:41:54.129Z,75.39
2018-12-04T08:44:23.290Z,74.41
2018-12-04T08:46:52.329Z,74.87
2018-12-04T08:49:21.367Z,75.41
2018-12-04T08:51:50.917Z,74.24
2018-12-04T08:54:19.910Z,74.73
2018-12-04T08:56:49.390Z,74.69
2018-12-04T08:59:18.593Z,74.07
2018-12-04T09:01:47.601Z,74.46
2018-12-04T09:04:16.718Z,74.16
2018-12-04T09:06:45.849Z,73.82
2018-12-04T09:09:15.074Z,74.19
2018-12-04T09:11:44.093Z,73.44
2018-12-04T09:14:13.194Z,74.85
2018-12-04T09:16:42.202Z,74.57
2018-12-04T09:19:11.237Z,73.72
2018-12-04T09:21:40.647Z,74.34
2018-12-04T09:24:09.871Z,72.84
2018-12-04T09:26:39.036Z,73.86
2018-12-04T09:29:08.307Z,73.31
2018-12-04T09:31:37.396Z,73.44
2018-12-04T09:34:07.499Z,72.51
2018-12-04T09:36:36.578Z,73.69
2018-12-04T09:39:07.942Z,73.75
2018-12-04T09:41:37.641Z,74.32
2018-12-04T09:44:06.725Z,72.65
2018-12-04T09:46:35.958Z,73.75
2018-12-04T09:49:05.837Z,72.77
2018-12-04T09:51:34.934Z,73.34
2018-12-04T09:54:04.176Z,72.13
2018-12-04T09:56:33.222Z,72.11
2018-12-04T09:59:02.322Z,71.80
2018-12-04T10:01:31.454Z,72.50
2018-12-04T10:04:00.506Z,71.62
2018-12-04T10:06:29.626Z,72.78
2018-12-04T10:08:59.023Z,71.75
2018-12-04T10:11:28.875Z,72.16
2018-12-04T10:13:58.199Z,72.54
2018-12-04T10:16:27.254Z,72.08
2018-12-04T10:18:56.310Z,72.68
2018-12-04T10:21:25.549Z,72.50
2018-12-04T10:23:54.929Z,72.63
2018-12-04T10:26:23.922Z,70.84
2018-12-04T10:28:52.985Z,72.42
2018-12-04T10:31:22.045Z,72.29
2018-12-04T10:33:51.080Z,71.27
2018-12-04T10:36:20.173Z,72.13
2018-12-04T10:38:49.490Z,71.50
2018-12-04T10:41:18.514Z,71.85
2018-12-04T10:43:47.555Z,72.12
2018-12-04T10:46:16.998Z,71.67
2018-12-04T10:48:46.002Z,72.43
2018-12-04T10:51:15.015Z,71.22
2018-12-04T10:53:44.082Z,72.62
2018-12-04T10:56:13.165Z,71.72
2018-12-04T10:58:42.167Z,71.57
2018-12-04T11:01:16.332Z,71.99
2018-12-04T11:03:45.349Z,72.35
2018-12-04T11:06:14.645Z,71.84
2018-12-04T11:08:43.957Z,72.29
2018-12-04T11:11:13.042Z,71.87
2018-12-04T11:13:42.139Z,71.34
2018-12-04T11:16:11.387Z,71.88
2018-12-04T11:18:40.759Z,72.21
2018-12-04T11:21:09.930Z,72.63
2018-12-04T11:23:40.369Z,72.90
2018-12-04T11:26:09.457Z,72.95
2018-12-04T11:28:38.795Z,73.01
2018-12-04T11:31:07.806Z,72.71
2018-12-04T11:33:36.831Z,73.21
2018-12-04T11:36:06.050Z,73.01
2018-12-04T11:38:35.333Z,73.57
2018-12-04T11:41:11.221Z,72.89
2018-12-04T11:43:40.621Z,72.99
2018-12-04T11:46:09.637Z,72.66
2018-12-04T11:48:38.826Z,73.24
2018-12-04T11:51:08.378Z,73.81
2018-12-04T11:53:37.390Z,72.96
2018-12-04T11:56:06.475Z,74.12
2018-12-04T11:58:35.898Z,73.09
2018-12-04T12:01:05.834Z,72.79
2018-12-04T12:03:34.897Z,72.95
2018-12-04T12:06:04.026Z,73.17
2018-12-04T12:08:35.017Z,73.44
2018-12-04T12:11:04.071Z,73.70
2018-12-04T12:13:33.110Z,72.26
2018-12-04T12:16:02.181Z,72.74
2018-12-04T12:18:31.225Z,73.30
2018-12-04T12:21:00.310Z,72.92
2018-12-04T12:23:29.599Z,72.49
2018-12-04T12:25:58.841Z,72.76
2018-12-04T12:28:27.973Z,73.50
2018-12-04T12:30:56.970Z,72.90
2018-12-04T12:33:26.810Z,73.39
2018-12-04T12:35:55.813Z,73.66
2018-12-04T12:38:24.820Z,74.25
2018-12-04T12:40:54.202Z,74.03
2018-12-04T12:43:24.347Z,74.53
2018-12-04T12:45:53.490Z,73.98
2018-12-04T12:48:22.919Z,73.70
2018-12-04T12:50:51.911Z,74.44
2018-12-04T12:53:20.994Z,74.61
2018-12-04T12:55:50.112Z,73.70
2018-12-04T12:58:19.194Z,74.48
2018-12-04T13:00:48.271Z,74.55
2018-12-04T13:03:18.515Z,74.89
2018-12-04T13:05:48.121Z,74.24
2018-12-04T13:08:17.617Z,74.41
2018-12-04T13:10:47.030Z,74.99
2018-12-04T13:13:16.039Z,74.42
2018-12-04T13:15:45.106Z,75.14
2018-12-04T13:18:14.525Z,74.71
2018-12-04T13:20:43.821Z,74.89
2018-12-04T13:23:13.481Z,74.30
2018-12-04T13:25:42.543Z,75.15
2018-12-04T13:28:11.599Z,74.58
2018-12-04T13:30:41.546Z,75.10
2018-12-04T13:33:10.575Z,75.10
2018-12-04T13:35:39.913Z,75.82
2018-12-04T13:38:08.968Z,75.06
2018-12-04T13:40:38.349Z,74.68
2018-12-04T13:43:07.478Z,76.09
2018-12-04T13:45:36.513Z,75.95
2018-12-04T13:48:05.697Z,75.79
2018-12-04T13:50:34.918Z,75.61
2018-12-04T13:53:04.201Z,75.40
2018-12-04T13:55:33.337Z,74.59
2018-12-04T13:58:02.501Z,75.84
2018-12-04T14:00:32.096Z,76.54
2018-12-04T14:03:01.355Z,76.10
2018-12-04T14:05:30.399Z,75.09
2018-12-04T14:07:59.484Z,76.40
2018-12-04T14:10:28.905Z,75.96
2018-12-04T14:12:58.098Z,76.09
2018-12-04T14:15:27.289Z,76.06
2018-12-04T14:17:56.690Z,76.68
2018-12-04T14:20:25.915Z,76.24
2018-12-04T14:22:55.381Z,75.64
2018-12-04T14:25:24.605Z,75.34
2018-12-04T14:27:53.704Z,76.94
2018-12-04T14:30:22.885Z,76.52
2018-12-04T14:32:52.366Z,75.85
2018-12-04T14:35:21.505Z,76.61
2018-12-04T14:37:50.664Z,76.04
2018-12-04T14:40:19.893Z,76.10
2018-12-04T14:42:51.106Z,76.00
2018-12-04T14:45:20.256Z,76.35
2018-12-04T14:47:49.345Z,76.62
2018-12-04T14:50:19.354Z,76.14
2018-12-04T14:52:48.763Z,76.03
2018-12-04T14:55:17.870Z,76.37
2018-12-04T14:57:46.875Z,76.44
2018-12-04T15:00:17.355Z,76.00
2018-12-04T15:02:46.484Z,76.50
2018-12-04T15:05:16.696Z,76.46
2018-12-04T15:07:45.880Z,76.80
2018-12-04T15:10:15.084Z,76.58
2018-12-04T15:12:44.305Z,76.30
2018-12-04T15:15:13.733Z,75.77
2018-12-04T15:20:10.933Z,75.47
2018-12-04T15:22:40.410Z,76.17
2018-12-04T15:25:10.261Z,76.51
2018-12-04T15:27:39.286Z,75.98
2018-12-04T15:30:09.522Z,76.57
2018-12-04T15:32:38.654Z,77.57
2018-12-04T15:35:08.125Z,76.99
2018-12-04T15:37:37.324Z,77.25
2018-12-04T15:40:07.722Z,76.44
2018-12-04T15:42:36.849Z,76.47
2018-12-04T15:45:06.889Z,77.04
2018-12-04T15:47:36.079Z,76.94
2018-12-04T15:50:06.407Z,77.04
2018-12-04T15:52:35.523Z,77.26
2018-12-04T15:55:05.291Z,76.90
2018-12-04T15:57:35.361Z,76.21
2018-12-04T16:00:07.216Z,76.33
2018-12-04T16:02:36.816Z,76.38
2018-12-04T16:05:08.109Z,76.70
2018-12-04T16:07:37.770Z,77.10
2018-12-04T16:10:10.142Z,76.55
2018-12-04T16:12:40.170Z,76.61
2018-12-04T16:15:09.486Z,76.45
2018-12-04T16:17:38.619Z,76.60
2018-12-04T16:20:08.714Z,76.79
2018-12-04T16:22:38.806Z,76.59
2018-12-04T16:25:09.724Z,77.00
2018-12-04T16:27:38.829Z,77.34
2018-12-04T16:30:09.769Z,75.96
2018-12-04T16:32:38.827Z,76.19
2018-12-04T16:35:09.229Z,76.52
2018-12-04T16:37:38.801Z,76.45
2018-12-04T16:40:08.348Z,77.42
2018-12-04T16:42:37.619Z,76.47
2018-12-04T16:45:07.038Z,76.68
2018-12-04T16:47:36.286Z,77.27
2018-12-04T16:50:06.008Z,76.27
2018-12-04T16:52:35.385Z,76.58
2018-12-04T16:55:05.578Z,76.07
2018-12-04T16:57:34.642Z,76.91
2018-12-04T17:00:05.163Z,76.73
2018-12-04T17:02:35.070Z,77.14
2018-12-04T17:05:04.627Z,76.55
2018-12-04T17:07:34.391Z,76.79
2018-12-04T17:10:04.622Z,76.50
2018-12-04T17:12:33.721Z,76.76
2018-12-04T17:15:03.265Z,77.00
2018-12-04T17:17:33.135Z,77.29
2018-12-04T17:20:02.339Z,77.15
2018-12-04T17:22:31.362Z,76.93
2018-12-04T17:25:00.432Z,75.83
2018-12-04T17:27:29.514Z,76.82
2018-12-04T17:29:58.591Z,76.92
2018-12-04T17:32:29.435Z,76.58
2018-12-04T17:34:58.948Z,76.98
2018-12-04T17:37:28.130Z,76.55
2018-12-04T17:39:57.167Z,76.47
2018-12-04T17:42:26.225Z,75.83
2018-12-04T17:44:55.244Z,76.24
2018-12-04T17:47:24.330Z,75.69
2018-12-04T17:49:53.478Z,75.68
2018-12-04T17:52:22.586Z,75.99
2018-12-04T17:54:51.641Z,76.42
2018-12-04T17:57:20.662Z,75.68
2018-12-04T17:59:51.687Z,75.51
2018-12-04T18:02:22.762Z,75.39
2018-12-04T18:04:51.891Z,75.89
2018-12-04T18:07:23.022Z,76.28
2018-12-04T18:09:52.262Z,76.64
2018-12-04T18:12:21.278Z,76.43
2018-12-04T18:14:52.653Z,75.83
2018-12-04T18:17:21.750Z,75.82
2018-12-04T18:19:51.015Z,75.90
2018-12-04T18:22:20.654Z,75.56
2018-12-04T18:24:49.850Z,75.52
2018-12-04T18:27:19.866Z,76.21
2018-12-04T18:29:49.051Z,75.56
2018-12-04T18:32:18.189Z,75.93
2018-12-04T18:34:47.245Z,76.44
2018-12-04T18:37:17.138Z,75.67
2018-12-04T18:39:46.399Z,75.06
2018-12-04T18:42:15.474Z,75.38
2018-12-04T18:44:44.987Z,74.82
2018-12-04T18:47:14.078Z,74.43
2018-12-04T18:49:43.151Z,73.97
2018-12-04T18:52:16.193Z,74.68
2018-12-04T18:54:45.392Z,74.22
2018-12-04T18:57:14.594Z,74.47
2018-12-04T18:59:43.930Z,74.25
2018-12-04T19:02:13.578Z,74.29
2018-12-04T19:04:42.775Z,74.37
2018-12-04T19:07:11.878Z,75.52
2018-12-04T19:09:42.359Z,75.56
2018-12-04T19:12:11.932Z,75.87
2018-12-04T19:14:41.149Z,75.65
2018-12-04T19:17:11.814Z,75.92
2018-12-04T19:19:41.277Z,74.83
2018-12-04T19:22:10.650Z,75.07
2018-12-04T19:24:40.090Z,74.83
2018-12-04T19:27:09.478Z,75.07
2018-12-04T19:29:39.641Z,74.33
2018-12-04T19:32:09.638Z,74.73
2018-12-04T19:34:38.892Z,75.30
2018-12-04T19:37:08.284Z,74.77
2018-12-04T19:39:38.408Z,75.01
2018-12-04T19:42:07.836Z,74.73
2018-12-04T19:44:36.914Z,74.57
2018-12-04T19:47:07.031Z,74.65
2018-12-04T19:49:36.258Z,74.11
2018-12-04T19:52:05.988Z,74.54
2018-12-04T19:54:36.038Z,74.19
2018-12-04T19:57:05.265Z,75.11
2018-12-04T19:59:37.159Z,75.06
2018-12-04T20:02:06.320Z,74.47
2018-12-04T20:04:35.476Z,75.50
2018-12-04T20:07:05.660Z,75.77
2018-12-04T20:09:35.374Z,75.68
2018-12-04T20:12:05.799Z,74.37
2018-12-04T20:14:35.171Z,75.30
2018-12-04T20:17:04.298Z,74.92
2018-12-04T20:19:34.658Z,74.86
2018-12-04T20:22:04.044Z,74.78
2018-12-04T20:24:33.915Z,75.73
2018-12-04T20:27:03.221Z,75.20
2018-12-04T20:29:32.402Z,74.81
2018-12-04T20:32:01.608Z,76.20
2018-12-04T20:34:31.690Z,75.26
2018-12-04T20:37:01.226Z,74.88
2018-12-04T20:39:30.453Z,74.85
2018-12-04T20:41:59.686Z,75.53
2018-12-04T20:44:28.822Z,74.68
2018-12-04T20:46:57.992Z,75.43
2018-12-04T20:49:28.109Z,74.78
2018-12-04T20:51:57.222Z,75.97
2018-12-04T20:54:26.415Z,75.08
2018-12-04T20:56:55.661Z,74.48
2018-12-04T20:59:24.843Z,74.96
2018-12-04T21:01:54.108Z,76.22
2018-12-04T21:04:23.818Z,75.75
2018-12-04T21:06:53.099Z,74.50
2018-12-04T21:09:22.326Z,75.07
2018-12-04T21:11:51.676Z,74.80
2018-12-04T21:14:20.780Z,74.96
2018-12-04T21:16:49.999Z,75.19
2018-12-04T21:19:19.401Z,74.50
2018-12-04T21:21:48.581Z,74.68
2018-12-04T21:24:17.681Z,74.71
2018-12-04T21:26:47.343Z,74.63
2018-12-04T21:29:21.714Z,74.58
2018-12-04T21:31:56.178Z,74.13
2018-12-04T21:34:30.514Z,73.23
2018-12-04T21:38:06.806Z,74.52
2018-12-04T21:40:41.375Z,73.21
2018-12-04T21:43:15.713Z,73.57
2018-12-04T21:45:50.022Z,74.22
2018-12-04T21:48:21.560Z,73.80
2018-12-04T21:50:50.618Z,73.06
2018-12-04T21:53:19.708Z,74.23
2018-12-04T21:55:48.791Z,74.57
2018-12-04T21:58:17.911Z,73.08
2018-12-04T22:00:47.026Z,72.23
2018-12-04T22:03:16.127Z,72.96
2018-12-04T22:05:45.266Z,71.92
2018-12-04T22:08:14.270Z,73.28
2018-12-04T22:10:43.612Z,70.16
2018-12-04T22:13:12.798Z,72.09
2018-12-04T22:15:41.997Z,72.41
2018-12-04T22:18:11.824Z,72.09
2018-12-04T22:20:41.091Z,72.08
2018-12-04T22:23:10.108Z,73.50
2018-12-04T22:25:39.175Z,72.76
2018-12-04T22:28:08.276Z,72.70
2018-12-04T22:30:38.293Z,72.55
2018-12-04T22:33:07.398Z,73.39
2018-12-04T22:35:36.450Z,72.86
2018-12-04T22:38:05.478Z,72.95
2018-12-04T22:40:34.603Z,72.51
2018-12-04T22:43:03.670Z,71.46
2018-12-04T22:45:32.785Z,71.48
2018-12-04T22:48:01.831Z,71.63
2018-12-04T22:50:30.961Z,71.48
2018-12-04T22:53:00.042Z,72.11
2018-12-04T22:55:29.462Z,71.38
2018-12-04T22:57:58.546Z,71.68
2018-12-04T23:00:39.128Z,71.97
2018-12-04T23:03:10.076Z,70.14
2018-12-04T23:05:39.566Z,73.10
2018-12-04T23:08:08.583Z,70.43
2018-12-04T23:10:37.649Z,71.93
2018-12-04T23:13:07.263Z,70.75
2018-12-04T23:15:36.335Z,71.76
2018-12-04T23:18:05.674Z,71.10
2018-12-04T23:20:35.011Z,71.29
2018-12-04T23:23:04.393Z,71.54
2018-12-04T23:25:34.111Z,71.22
2018-12-04T23:28:03.190Z,71.30
2018-12-04T23:30:32.257Z,70.78
2018-12-04T23:33:01.319Z,71.20
2018-12-04T23:35:30.458Z,69.80
2018-12-04T23:37:59.526Z,69.68
2018-12-04T23:40:28.662Z,70.11
2018-12-04T23:42:58.043Z,70.54
2018-12-04T23:45:27.122Z,70.14
2018-12-04T23:47:56.210Z,71.51
2018-12-04T23:50:25.594Z,71.36
2018-12-04T23:52:54.921Z,71.12
2018-12-04T23:55:24.030Z,70.41
2018-12-04T23:57:53.435Z,71.92
